createdAt,value
2023-02-18T00:01:21.263Z,0
2023-02-18T00:03:05.020Z,0
2023-02-18T00:04:48.583Z,0
2023-02-18T00:06:32.369Z,0
2023-02-18T00:08:15.979Z,0
2023-02-18T00:09:59.685Z,0
2023-02-18T00:11:43.367Z,0
2023-02-18T00:13:27.101Z,0
2023-02-18T00:15:10.784Z,0
2023-02-18T00:16:54.496Z,1
2023-02-18T00:18:38.218Z,0
2023-02-18T00:20:21.907Z,0
2023-02-18T00:22:05.638Z,0
2023-02-18T00:23:49.291Z,0
2023-02-18T00:27:16.810Z,0
2023-02-18T00:29:00.418Z,0
2023-02-18T00:30:44.080Z,0
2023-02-18T00:32:27.838Z,0
2023-02-18T00:34:11.580Z,0
2023-02-18T00:35:55.228Z,0
2023-02-18T00:37:38.908Z,0
2023-02-18T00:39:22.617Z,0
2023-02-18T00:41:06.304Z,0
2023-02-18T00:42:50.061Z,0
2023-02-18T00:44:33.711Z,0
2023-02-18T00:46:17.513Z,0
2023-02-18T00:48:01.168Z,0
2023-02-18T00:49:44.848Z,0
2023-02-18T00:51:28.571Z,0
2023-02-18T00:53:12.315Z,0
2023-02-18T00:54:55.959Z,0
2023-02-18T00:56:39.658Z,0
2023-02-18T00:58:23.355Z,0
2023-02-18T01:00:07.026Z,1
2023-02-18T01:01:50.908Z,0
2023-02-18T01:03:34.452Z,0
2023-02-18T01:05:18.152Z,1
2023-02-18T01:07:01.868Z,0
2023-02-18T01:08:45.536Z,0
2023-02-18T01:10:29.255Z,0
2023-02-18T01:12:12.940Z,0
2023-02-18T01:13:56.725Z,0
2023-02-18T01:15:40.338Z,0
2023-02-18T01:17:24.098Z,0
2023-02-18T01:19:07.735Z,0
2023-02-18T01:20:51.447Z,0
2023-02-18T01:22:35.141Z,0
2023-02-18T01:24:18.862Z,0
2023-02-18T01:26:02.548Z,0
2023-02-18T01:27:46.394Z,0
2023-02-18T01:29:29.968Z,0
2023-02-18T01:31:13.649Z,0
2023-02-18T01:32:57.374Z,1
2023-02-18T01:34:41.051Z,0
2023-02-18T01:36:24.768Z,0
2023-02-18T01:38:08.491Z,0
2023-02-18T01:39:52.177Z,0
2023-02-18T01:41:35.930Z,0
2023-02-18T01:43:19.572Z,0
2023-02-18T01:45:03.282Z,0
2023-02-18T01:46:47.001Z,0
2023-02-18T01:48:30.679Z,0
2023-02-18T01:50:14.382Z,0
2023-02-18T01:51:58.091Z,0
2023-02-18T01:53:41.797Z,0
2023-02-18T01:55:25.461Z,0
2023-02-18T01:57:09.180Z,0
2023-02-18T01:58:52.877Z,0
2023-02-18T02:00:36.588Z,0
2023-02-18T02:02:20.363Z,0
2023-02-18T02:04:03.974Z,0
2023-02-18T02:05:47.691Z,0
2023-02-18T02:07:31.380Z,0
2023-02-18T02:09:15.068Z,0
2023-02-18T02:10:58.782Z,0
2023-02-18T02:12:42.505Z,0
2023-02-18T02:14:26.207Z,0
2023-02-18T02:16:09.893Z,0
2023-02-18T02:17:53.603Z,0
2023-02-18T02:19:37.302Z,0
2023-02-18T02:21:21.011Z,0
2023-02-18T02:23:04.743Z,0
2023-02-18T02:24:48.395Z,0
2023-02-18T02:26:32.104Z,0
2023-02-18T02:28:15.843Z,0
2023-02-18T02:29:59.544Z,0
2023-02-18T02:31:43.207Z,0
2023-02-18T02:33:26.918Z,0
2023-02-18T02:35:10.632Z,0
2023-02-18T02:36:54.320Z,0
2023-02-18T02:38:38.026Z,0
2023-02-18T02:40:21.766Z,0
2023-02-18T02:42:05.442Z,0
2023-02-18T02:43:49.143Z,0
2023-02-18T02:45:32.844Z,0
2023-02-18T02:47:16.575Z,0
2023-02-18T02:49:00.250Z,0
2023-02-18T02:50:43.959Z,0
2023-02-18T02:52:27.647Z,0
2023-02-18T02:54:11.349Z,0
2023-02-18T02:55:55.080Z,0
2023-02-18T02:57:38.769Z,0
2023-02-18T02:59:22.457Z,0
2023-02-18T03:01:06.178Z,0
2023-02-18T03:02:49.884Z,0
2023-02-18T03:04:33.584Z,0
2023-02-18T03:06:17.386Z,0
2023-02-18T03:08:00.963Z,0
2023-02-18T03:09:44.684Z,0
2023-02-18T03:11:28.376Z,0
2023-02-18T03:13:12.065Z,0
2023-02-18T03:14:55.790Z,0
2023-02-18T03:16:39.481Z,0
2023-02-18T03:18:23.173Z,0
2023-02-18T03:20:06.861Z,1
2023-02-18T03:21:50.602Z,0
2023-02-18T03:23:34.281Z,0
2023-02-18T03:25:18.011Z,0
2023-02-18T03:27:01.686Z,0
2023-02-18T03:28:45.413Z,0
2023-02-18T03:30:29.076Z,0
2023-02-18T03:32:12.776Z,0
2023-02-18T03:33:56.482Z,0
2023-02-18T03:35:40.218Z,0
2023-02-18T03:37:23.877Z,0
2023-02-18T03:39:07.586Z,0
2023-02-18T03:40:51.338Z,0
2023-02-18T03:42:35.098Z,0
2023-02-18T03:44:18.728Z,0
2023-02-18T03:46:02.454Z,0
2023-02-18T03:47:46.223Z,1
2023-02-18T03:49:29.827Z,0
2023-02-18T03:51:13.544Z,0
2023-02-18T03:52:57.270Z,0
2023-02-18T03:54:40.971Z,1
2023-02-18T03:56:24.646Z,0
2023-02-18T03:58:08.368Z,0
2023-02-18T03:59:52.060Z,0
2023-02-18T04:01:35.779Z,0
2023-02-18T04:03:19.495Z,0
2023-02-18T04:05:03.202Z,0
2023-02-18T04:06:46.912Z,0
2023-02-18T04:08:30.569Z,0
2023-02-18T04:10:14.248Z,0
2023-02-18T04:11:58.008Z,1
2023-02-18T04:13:41.661Z,0
2023-02-18T04:15:25.374Z,0
2023-02-18T04:17:09.074Z,0
2023-02-18T04:18:52.804Z,0
2023-02-18T04:20:36.464Z,0
2023-02-18T04:22:20.135Z,0
2023-02-18T04:24:03.903Z,0
2023-02-18T04:25:47.583Z,0
2023-02-18T04:27:31.269Z,0
2023-02-18T04:29:14.960Z,1
2023-02-18T04:30:58.658Z,0
2023-02-18T04:32:42.334Z,0
2023-02-18T04:34:26.039Z,0
2023-02-18T04:36:09.756Z,0
2023-02-18T04:37:53.464Z,0
2023-02-18T04:39:37.161Z,0
2023-02-18T04:41:20.862Z,0
2023-02-18T04:43:04.583Z,0
2023-02-18T04:44:48.322Z,0
2023-02-18T04:46:31.937Z,0
2023-02-18T04:48:15.652Z,0
2023-02-18T04:49:59.349Z,0
2023-02-18T04:51:43.074Z,0
2023-02-18T04:53:26.746Z,0
2023-02-18T04:55:10.444Z,0
2023-02-18T04:56:54.148Z,0
2023-02-18T04:58:37.871Z,0
2023-02-18T05:00:21.636Z,0
2023-02-18T05:02:05.267Z,0
2023-02-18T05:03:48.961Z,0
2023-02-18T05:05:32.651Z,0
2023-02-18T05:07:16.385Z,0
2023-02-18T05:09:00.132Z,0
2023-02-18T05:10:43.762Z,0
2023-02-18T05:12:27.493Z,0
2023-02-18T05:14:11.197Z,0
2023-02-18T05:15:54.886Z,0
2023-02-18T05:17:38.594Z,0
2023-02-18T05:19:22.277Z,0
2023-02-18T05:21:05.973Z,0
2023-02-18T05:22:49.681Z,0
2023-02-18T05:24:33.400Z,0
2023-02-18T05:26:17.080Z,0
2023-02-18T05:28:00.870Z,0
2023-02-18T05:29:44.500Z,1
2023-02-18T05:31:28.183Z,0
2023-02-18T05:33:11.896Z,0
2023-02-18T05:34:55.592Z,0
2023-02-18T05:36:39.304Z,0
2023-02-18T05:38:22.992Z,0
2023-02-18T05:40:06.720Z,0
2023-02-18T05:41:50.383Z,0
2023-02-18T05:43:34.120Z,0
2023-02-18T05:45:17.816Z,0
2023-02-18T05:47:01.500Z,0
2023-02-18T05:48:45.210Z,0
2023-02-18T05:50:28.909Z,0
2023-02-18T05:52:12.594Z,0
2023-02-18T05:53:56.319Z,0
2023-02-18T05:55:40.048Z,0
2023-02-18T05:57:23.719Z,0
2023-02-18T05:59:07.418Z,0
2023-02-18T06:00:51.117Z,0
2023-02-18T06:02:34.785Z,0
2023-02-18T06:04:18.513Z,0
2023-02-18T06:06:02.189Z,0
2023-02-18T06:07:45.919Z,0
2023-02-18T06:09:29.589Z,0
2023-02-18T06:11:13.312Z,0
2023-02-18T06:12:57.087Z,0
2023-02-18T06:14:40.713Z,0
2023-02-18T06:16:24.428Z,1
2023-02-18T06:18:08.127Z,0
2023-02-18T06:19:51.854Z,1
2023-02-18T06:21:35.573Z,1
2023-02-18T06:23:19.223Z,1
2023-02-18T06:25:02.936Z,1
2023-02-18T06:26:46.649Z,1
2023-02-18T06:28:30.317Z,1
2023-02-18T06:30:14.026Z,1
2023-02-18T06:31:57.727Z,3
2023-02-18T06:33:41.443Z,3
2023-02-18T06:35:25.133Z,4
2023-02-18T06:37:08.831Z,5
2023-02-18T06:38:52.580Z,6
2023-02-18T06:40:36.254Z,6
2023-02-18T06:42:19.961Z,6
2023-02-18T06:44:03.666Z,7
2023-02-18T06:45:47.439Z,9
2023-02-18T06:47:31.038Z,11
2023-02-18T06:49:14.790Z,11
2023-02-18T06:50:58.446Z,12
2023-02-18T06:52:42.151Z,12
2023-02-18T06:54:25.882Z,13
2023-02-18T06:56:09.547Z,14
2023-02-18T06:57:53.330Z,15
2023-02-18T06:59:36.948Z,16
2023-02-18T07:01:20.721Z,16
2023-02-18T07:03:04.383Z,18
2023-02-18T07:04:48.065Z,20
2023-02-18T07:06:31.801Z,23
2023-02-18T07:08:15.521Z,22
2023-02-18T07:09:59.185Z,22
2023-02-18T07:11:42.850Z,24
2023-02-18T07:13:26.547Z,27
2023-02-18T07:15:10.262Z,30
2023-02-18T07:16:53.983Z,36
2023-02-18T07:18:37.667Z,31
2023-02-18T07:20:21.423Z,32
2023-02-18T07:22:05.062Z,36
2023-02-18T07:23:48.777Z,33
2023-02-18T07:25:32.462Z,26
2023-02-18T07:27:16.162Z,29
2023-02-18T07:28:59.882Z,36
2023-02-18T07:30:43.568Z,41
2023-02-18T07:32:27.290Z,40
2023-02-18T07:34:10.991Z,47
2023-02-18T07:35:54.681Z,57
2023-02-18T07:37:38.551Z,59
2023-02-18T07:39:22.260Z,68
2023-02-18T07:41:05.899Z,80
2023-02-18T07:42:49.699Z,75
2023-02-18T07:44:33.318Z,76
2023-02-18T07:46:16.911Z,81
2023-02-18T07:48:00.805Z,90
2023-02-18T07:49:44.411Z,80
2023-02-18T07:51:28.114Z,75
2023-02-18T07:53:11.719Z,79
2023-02-18T07:54:55.469Z,72
2023-02-18T07:56:39.300Z,72
2023-02-18T07:58:22.899Z,88
2023-02-18T08:00:06.682Z,100
2023-02-18T08:01:50.311Z,98
2023-02-18T08:03:34.017Z,107
2023-02-18T08:05:17.786Z,104
2023-02-18T08:07:01.498Z,89
2023-02-18T08:08:45.221Z,90
2023-02-18T08:10:28.871Z,93
2023-02-18T08:12:12.495Z,103
2023-02-18T08:13:56.285Z,95
2023-02-18T08:15:39.986Z,97
2023-02-18T08:17:23.652Z,93
2023-02-18T08:19:07.389Z,81
2023-02-18T08:20:50.988Z,77
2023-02-18T08:22:34.763Z,86
2023-02-18T08:24:18.499Z,98
2023-02-18T08:26:02.122Z,117
2023-02-18T08:27:45.805Z,154
2023-02-18T08:29:29.608Z,177
2023-02-18T08:31:13.209Z,184
2023-02-18T08:32:56.881Z,178
2023-02-18T08:34:40.634Z,189
2023-02-18T08:36:24.496Z,245
2023-02-18T08:38:08.009Z,213
2023-02-18T08:39:51.821Z,253
2023-02-18T08:41:35.384Z,250
2023-02-18T08:43:19.157Z,241
2023-02-18T08:45:02.822Z,300
2023-02-18T08:46:46.578Z,775
2023-02-18T08:48:30.325Z,776
2023-02-18T08:50:13.945Z,776
2023-02-18T08:51:57.603Z,777
2023-02-18T08:53:41.333Z,776
2023-02-18T08:55:25.022Z,776
2023-02-18T08:57:08.702Z,776
2023-02-18T08:58:52.442Z,776
2023-02-18T09:00:36.123Z,777
2023-02-18T09:02:19.834Z,777
2023-02-18T09:04:03.568Z,776
2023-02-18T09:05:47.284Z,774
2023-02-18T09:07:30.931Z,776
2023-02-18T09:09:14.636Z,777
2023-02-18T09:10:58.324Z,777
2023-02-18T09:12:42.127Z,775
2023-02-18T09:14:25.830Z,777
2023-02-18T09:16:09.431Z,777
2023-02-18T09:17:53.230Z,777
2023-02-18T09:19:36.867Z,777
2023-02-18T09:21:20.605Z,777
2023-02-18T09:23:04.256Z,777
2023-02-18T09:24:48.008Z,777
2023-02-18T09:26:31.661Z,777
2023-02-18T09:28:15.338Z,777
2023-02-18T09:29:59.051Z,777
2023-02-18T09:31:42.777Z,777
2023-02-18T09:33:26.470Z,777
2023-02-18T09:35:10.180Z,778
2023-02-18T09:36:53.859Z,777
2023-02-18T09:38:37.563Z,777
2023-02-18T09:40:21.295Z,778
2023-02-18T09:42:04.974Z,777
2023-02-18T09:43:48.652Z,778
2023-02-18T09:45:32.399Z,777
2023-02-18T09:47:16.091Z,778
2023-02-18T09:48:59.835Z,777
2023-02-18T09:50:43.478Z,777
2023-02-18T09:52:27.192Z,777
2023-02-18T09:54:10.885Z,777
2023-02-18T09:55:54.595Z,778
2023-02-18T09:57:38.315Z,777
2023-02-18T09:59:21.995Z,777
2023-02-18T10:01:05.782Z,778
2023-02-18T10:02:49.405Z,778
2023-02-18T10:04:33.110Z,777
2023-02-18T10:06:16.928Z,778
2023-02-18T10:08:00.517Z,777
2023-02-18T10:09:44.220Z,778
2023-02-18T10:11:28.048Z,778
2023-02-18T10:13:11.615Z,777
2023-02-18T10:14:55.321Z,778
2023-02-18T10:16:39.034Z,778
2023-02-18T10:18:22.749Z,777
2023-02-18T10:20:06.426Z,777
2023-02-18T10:21:50.164Z,778
2023-02-18T10:23:33.847Z,775
2023-02-18T10:25:17.526Z,777
2023-02-18T10:27:01.230Z,778
2023-02-18T10:28:44.947Z,778
2023-02-18T10:30:28.667Z,774
2023-02-18T10:32:12.348Z,777
2023-02-18T10:33:56.108Z,778
2023-02-18T10:35:39.737Z,778
2023-02-18T10:37:23.511Z,775
2023-02-18T10:39:07.167Z,778
2023-02-18T10:40:50.847Z,778
2023-02-18T10:42:34.558Z,778
2023-02-18T10:44:18.335Z,776
2023-02-18T10:46:01.987Z,778
2023-02-18T10:47:45.661Z,778
2023-02-18T10:49:29.459Z,777
2023-02-18T10:51:13.099Z,778
2023-02-18T10:52:56.761Z,778
2023-02-18T10:54:40.463Z,778
2023-02-18T10:56:24.166Z,778
2023-02-18T10:58:07.890Z,778
2023-02-18T10:59:51.576Z,777
2023-02-18T11:01:35.272Z,778
2023-02-18T11:03:18.970Z,778
2023-02-18T11:05:02.674Z,778
2023-02-18T11:06:46.383Z,778
2023-02-18T11:08:30.090Z,777
2023-02-18T11:10:13.795Z,779
2023-02-18T11:11:57.489Z,778
2023-02-18T11:13:41.195Z,777
2023-02-18T11:15:24.926Z,778
2023-02-18T11:17:08.605Z,779
2023-02-18T11:18:52.318Z,778
2023-02-18T11:20:36.065Z,778
2023-02-18T11:22:19.734Z,778
2023-02-18T11:24:03.402Z,778
2023-02-18T11:25:47.191Z,778
2023-02-18T11:27:30.846Z,778
2023-02-18T11:29:14.511Z,778
2023-02-18T11:30:58.181Z,778
2023-02-18T11:32:41.895Z,778
2023-02-18T11:34:25.587Z,778
2023-02-18T11:36:09.303Z,777
2023-02-18T11:37:52.996Z,775
2023-02-18T11:39:36.890Z,780
2023-02-18T11:41:20.383Z,778
2023-02-18T11:43:04.087Z,778
2023-02-18T11:44:47.783Z,778
2023-02-18T11:46:31.487Z,778
2023-02-18T11:48:15.267Z,778
2023-02-18T11:49:58.926Z,778
2023-02-18T11:51:42.602Z,778
2023-02-18T11:53:26.313Z,777
2023-02-18T11:55:10.084Z,778
2023-02-18T11:56:53.722Z,777
2023-02-18T11:58:37.399Z,778
2023-02-18T12:00:21.218Z,778
2023-02-18T12:02:04.819Z,778
2023-02-18T12:03:48.508Z,777
2023-02-18T12:05:32.213Z,777
2023-02-18T12:07:16.003Z,777
2023-02-18T12:08:59.614Z,778
2023-02-18T12:10:43.304Z,778
2023-02-18T12:12:27.004Z,777
2023-02-18T12:14:10.750Z,778
2023-02-18T12:15:54.459Z,777
2023-02-18T12:17:38.128Z,777
2023-02-18T12:19:21.825Z,776
2023-02-18T12:21:05.516Z,778
2023-02-18T12:22:49.234Z,778
2023-02-18T12:24:32.941Z,778
2023-02-18T12:26:16.637Z,777
2023-02-18T12:28:00.330Z,777
2023-02-18T12:29:44.028Z,778
2023-02-18T12:31:27.730Z,775
2023-02-18T12:33:11.446Z,778
2023-02-18T12:34:55.225Z,778
2023-02-18T12:36:39.022Z,778
2023-02-18T12:38:22.707Z,777
2023-02-18T12:40:06.238Z,778
2023-02-18T12:41:49.942Z,777
2023-02-18T12:43:33.654Z,777
2023-02-18T12:45:17.350Z,777
2023-02-18T12:47:01.072Z,777
2023-02-18T12:48:44.765Z,778
2023-02-18T12:50:28.467Z,777
2023-02-18T12:52:12.183Z,777
2023-02-18T12:53:56.034Z,778
2023-02-18T12:55:39.728Z,777
2023-02-18T12:57:23.406Z,777
2023-02-18T12:59:06.985Z,777
2023-02-18T13:00:50.767Z,778
2023-02-18T13:02:34.400Z,777
2023-02-18T13:04:18.125Z,777
2023-02-18T13:06:01.794Z,778
2023-02-18T13:07:45.521Z,777
2023-02-18T13:09:29.338Z,778
2023-02-18T13:11:12.966Z,777
2023-02-18T13:12:56.648Z,778
2023-02-18T13:14:40.298Z,778
2023-02-18T13:16:24.035Z,777
2023-02-18T13:18:07.728Z,778
2023-02-18T13:19:51.493Z,777
2023-02-18T13:21:35.228Z,777
2023-02-18T13:23:18.811Z,777
2023-02-18T13:25:02.589Z,777
2023-02-18T13:26:46.282Z,778
2023-02-18T13:28:30.079Z,777
2023-02-18T13:30:13.613Z,777
2023-02-18T13:31:57.329Z,777
2023-02-18T13:33:41.098Z,777
2023-02-18T13:35:24.823Z,777
2023-02-18T13:37:08.438Z,778
2023-02-18T13:38:52.169Z,775
2023-02-18T13:40:35.840Z,777
2023-02-18T13:42:19.548Z,777
2023-02-18T13:44:03.311Z,778
2023-02-18T13:45:47.039Z,777
2023-02-18T13:47:30.668Z,777
2023-02-18T13:49:14.358Z,777
2023-02-18T13:50:58.065Z,777
2023-02-18T13:52:41.763Z,778
2023-02-18T13:54:25.470Z,777
2023-02-18T13:56:09.181Z,777
2023-02-18T13:57:52.992Z,778
2023-02-18T13:59:36.566Z,777
2023-02-18T14:01:20.278Z,776
2023-02-18T14:03:03.985Z,777
2023-02-18T14:04:47.687Z,777
2023-02-18T14:06:31.380Z,777
2023-02-18T14:08:15.091Z,777
2023-02-18T14:09:58.804Z,777
2023-02-18T14:11:42.512Z,777
2023-02-18T14:13:26.197Z,777
2023-02-18T14:15:09.901Z,777
2023-02-18T14:16:53.652Z,777
2023-02-18T14:18:37.306Z,777
2023-02-18T14:20:21.021Z,777
2023-02-18T14:22:04.707Z,777
2023-02-18T14:23:48.434Z,777
2023-02-18T14:25:32.145Z,777
2023-02-18T14:27:15.876Z,777
2023-02-18T14:28:59.523Z,777
2023-02-18T14:30:43.228Z,778
2023-02-18T14:32:26.940Z,777
2023-02-18T14:34:10.618Z,777
2023-02-18T14:35:54.318Z,777
2023-02-18T14:37:38.030Z,777
2023-02-18T14:39:21.743Z,777
2023-02-18T14:41:05.425Z,777
2023-02-18T14:42:49.143Z,777
2023-02-18T14:44:32.906Z,777
2023-02-18T14:46:16.653Z,777
2023-02-18T14:48:00.358Z,777
2023-02-18T14:49:44.066Z,777
2023-02-18T14:51:27.678Z,777
2023-02-18T14:53:11.433Z,777
2023-02-18T14:54:55.034Z,777
2023-02-18T14:58:22.540Z,777
2023-02-18T15:00:06.178Z,768
2023-02-18T15:01:49.860Z,777
2023-02-18T15:03:33.592Z,777
2023-02-18T15:05:17.362Z,776
2023-02-18T15:07:01.084Z,776
2023-02-18T15:08:44.649Z,777
2023-02-18T15:10:28.363Z,777
2023-02-18T15:12:12.082Z,777
2023-02-18T15:13:55.780Z,777
2023-02-18T15:15:39.620Z,777
2023-02-18T15:17:23.178Z,777
2023-02-18T15:19:06.871Z,776
2023-02-18T15:20:50.582Z,777
2023-02-18T15:22:34.262Z,777
2023-02-18T15:24:17.981Z,776
2023-02-18T15:26:01.688Z,777
2023-02-18T15:27:45.517Z,777
2023-02-18T15:29:29.112Z,723
2023-02-18T15:31:12.786Z,734
2023-02-18T15:32:56.468Z,714
2023-02-18T15:34:40.190Z,687
2023-02-18T15:36:23.884Z,627
2023-02-18T15:38:07.597Z,574
2023-02-18T15:39:51.287Z,489
2023-02-18T15:41:34.986Z,459
2023-02-18T15:43:18.679Z,429
2023-02-18T15:45:02.404Z,425
2023-02-18T15:46:46.088Z,400
2023-02-18T15:48:29.788Z,380
2023-02-18T15:50:13.497Z,374
2023-02-18T15:51:57.231Z,367
2023-02-18T15:53:40.898Z,353
2023-02-18T15:55:24.639Z,335
2023-02-18T15:57:08.301Z,325
2023-02-18T15:58:51.992Z,331
2023-02-18T16:00:35.709Z,323
2023-02-18T16:02:19.419Z,319
2023-02-18T16:04:03.109Z,298
2023-02-18T16:05:46.829Z,291
2023-02-18T16:07:30.529Z,269
2023-02-18T16:09:14.213Z,248
2023-02-18T16:10:57.900Z,237
2023-02-18T16:12:41.616Z,211
2023-02-18T16:14:25.320Z,195
2023-02-18T16:16:09.036Z,178
2023-02-18T16:17:52.716Z,174
2023-02-18T16:19:36.414Z,172
2023-02-18T16:21:20.124Z,165
2023-02-18T16:23:03.812Z,150
2023-02-18T16:24:47.545Z,136
2023-02-18T16:26:31.217Z,128
2023-02-18T16:28:14.921Z,114
2023-02-18T16:29:58.629Z,97
2023-02-18T16:31:42.324Z,80
2023-02-18T16:33:26.072Z,68
2023-02-18T16:35:09.774Z,62
2023-02-18T16:36:53.577Z,50
2023-02-18T16:38:37.256Z,42
2023-02-18T16:40:20.922Z,31
2023-02-18T16:42:04.589Z,26
2023-02-18T16:43:48.370Z,20
2023-02-18T16:45:31.967Z,15
2023-02-18T16:47:15.683Z,13
2023-02-18T16:48:59.431Z,11
2023-02-18T16:50:43.128Z,9
2023-02-18T16:52:26.819Z,9
2023-02-18T16:54:10.485Z,7
2023-02-18T16:55:54.202Z,6
2023-02-18T16:57:37.879Z,5
2023-02-18T16:59:21.582Z,4
2023-02-18T17:01:05.278Z,3
2023-02-18T17:02:49.020Z,3
2023-02-18T17:04:32.679Z,2
2023-02-18T17:06:16.417Z,1
2023-02-18T17:08:00.065Z,1
2023-02-18T17:09:43.780Z,0
2023-02-18T17:11:27.470Z,0
2023-02-18T17:13:11.171Z,0
2023-02-18T17:14:54.936Z,0
2023-02-18T17:16:38.564Z,1
2023-02-18T17:18:22.282Z,0
2023-02-18T17:20:05.981Z,0
2023-02-18T17:21:49.685Z,0
2023-02-18T17:23:33.378Z,0
2023-02-18T17:25:17.086Z,0
2023-02-18T17:27:00.785Z,0
2023-02-18T17:28:44.476Z,0
2023-02-18T17:30:28.185Z,0
2023-02-18T17:32:11.961Z,0
2023-02-18T17:33:55.608Z,0
2023-02-18T17:35:39.291Z,0
2023-02-18T17:37:22.992Z,0
2023-02-18T17:39:06.711Z,0
2023-02-18T17:40:50.414Z,0
2023-02-18T17:42:34.169Z,1
2023-02-18T17:44:17.811Z,0
2023-02-18T17:46:01.503Z,0
2023-02-18T17:47:45.232Z,0
2023-02-18T17:49:28.913Z,0
2023-02-18T17:51:12.609Z,0
2023-02-18T17:52:56.319Z,0
2023-02-18T17:54:40.035Z,0
2023-02-18T17:56:23.748Z,0
2023-02-18T17:58:07.414Z,1
2023-02-18T17:59:51.182Z,0
2023-02-18T18:01:34.844Z,0
2023-02-18T18:03:18.528Z,0
2023-02-18T18:05:02.222Z,0
2023-02-18T18:06:45.938Z,0
2023-02-18T18:08:29.624Z,0
2023-02-18T18:10:13.322Z,0
2023-02-18T18:11:57.058Z,0
2023-02-18T18:13:40.714Z,2
2023-02-18T18:15:24.424Z,776
2023-02-18T18:17:08.142Z,776
2023-02-18T18:18:51.819Z,776
2023-02-18T18:20:35.515Z,776
2023-02-18T18:22:19.233Z,0
2023-02-18T18:24:02.964Z,0
2023-02-18T18:25:46.649Z,0
2023-02-18T18:27:30.330Z,0
2023-02-18T18:29:14.060Z,0
2023-02-18T18:30:57.755Z,0
2023-02-18T18:32:41.438Z,0
2023-02-18T18:34:25.143Z,0
2023-02-18T18:36:08.852Z,0
2023-02-18T18:37:52.576Z,0
2023-02-18T18:39:36.398Z,0
2023-02-18T18:41:19.954Z,0
2023-02-18T18:43:03.701Z,0
2023-02-18T18:44:47.405Z,0
2023-02-18T18:46:31.077Z,0
2023-02-18T18:48:14.818Z,0
2023-02-18T18:49:58.519Z,0
2023-02-18T18:51:42.190Z,0
2023-02-18T18:53:25.891Z,0
2023-02-18T18:55:09.649Z,1
2023-02-18T18:56:53.422Z,0
2023-02-18T18:58:37.063Z,0
2023-02-18T19:00:20.750Z,0
2023-02-18T19:02:04.384Z,0
2023-02-18T19:03:48.171Z,0
2023-02-18T19:05:31.796Z,0
2023-02-18T19:07:15.531Z,0
2023-02-18T19:08:59.250Z,0
2023-02-18T19:10:42.896Z,0
2023-02-18T19:12:26.586Z,0
2023-02-18T19:14:10.313Z,0
2023-02-18T19:15:53.990Z,0
2023-02-18T19:17:37.715Z,0
2023-02-18T19:19:21.467Z,0
2023-02-18T19:21:05.110Z,0
2023-02-18T19:22:48.815Z,0
2023-02-18T19:24:32.515Z,0
2023-02-18T19:26:16.219Z,0
2023-02-18T19:27:59.956Z,0
2023-02-18T19:29:43.621Z,0
2023-02-18T19:31:27.367Z,0
2023-02-18T19:33:11.017Z,0
2023-02-18T19:34:54.723Z,0
2023-02-18T19:36:38.435Z,0
2023-02-18T19:38:22.210Z,0
2023-02-18T19:40:05.844Z,0
2023-02-18T19:41:49.566Z,0
2023-02-18T19:43:33.250Z,0
2023-02-18T19:45:16.956Z,0
2023-02-18T19:47:00.638Z,0
2023-02-18T19:48:47.014Z,0
2023-02-18T19:50:28.094Z,1
2023-02-18T19:52:11.792Z,0
2023-02-18T19:53:55.468Z,0
2023-02-18T19:55:39.208Z,0
2023-02-18T19:57:22.891Z,0
2023-02-18T19:59:06.584Z,0
2023-02-18T20:00:50.295Z,0
2023-02-18T20:02:34.000Z,0
2023-02-18T20:04:17.685Z,0
2023-02-18T20:06:01.454Z,0
2023-02-18T20:07:45.097Z,0
2023-02-18T20:09:28.806Z,0
2023-02-18T20:11:12.511Z,0
2023-02-18T20:12:56.198Z,0
2023-02-18T20:14:39.906Z,0
2023-02-18T20:16:23.599Z,0
2023-02-18T20:18:07.305Z,0
2023-02-18T20:19:50.996Z,0
2023-02-18T20:21:34.717Z,0
2023-02-18T20:23:18.540Z,0
2023-02-18T20:25:02.123Z,1
2023-02-18T20:26:45.810Z,0
2023-02-18T20:28:29.611Z,0
2023-02-18T20:30:13.277Z,0
2023-02-18T20:33:40.629Z,0
2023-02-18T20:35:24.327Z,1
2023-02-18T20:37:08.089Z,0
2023-02-18T20:38:51.758Z,0
2023-02-18T20:40:35.452Z,0
2023-02-18T20:42:19.117Z,0
2023-02-18T20:44:02.863Z,0
2023-02-18T20:45:46.518Z,0
2023-02-18T20:47:30.215Z,0
2023-02-18T20:49:14.032Z,0
2023-02-18T20:50:57.644Z,0
2023-02-18T20:52:41.353Z,0
2023-02-18T20:54:25.080Z,0
2023-02-18T20:56:08.730Z,0
2023-02-18T20:57:52.420Z,0
2023-02-18T20:59:36.164Z,0
2023-02-18T21:01:19.994Z,0
2023-02-18T21:03:03.556Z,0
2023-02-18T21:04:47.257Z,0
2023-02-18T21:06:30.936Z,0
2023-02-18T21:08:14.672Z,0
2023-02-18T21:09:58.363Z,0
2023-02-18T21:11:42.133Z,0
2023-02-18T21:13:25.738Z,0
2023-02-18T21:15:09.441Z,0
2023-02-18T21:16:53.159Z,0
2023-02-18T21:18:36.832Z,0
2023-02-18T21:20:20.582Z,0
2023-02-18T21:22:04.245Z,0
2023-02-18T21:23:47.958Z,0
2023-02-18T21:25:31.653Z,0
2023-02-18T21:27:15.373Z,0
2023-02-18T21:28:59.042Z,0
2023-02-18T21:30:42.766Z,0
2023-02-18T21:32:26.463Z,0
2023-02-18T21:34:10.171Z,0
2023-02-18T21:35:53.973Z,0
2023-02-18T21:37:37.553Z,0
2023-02-18T21:39:21.449Z,776
2023-02-18T21:41:04.979Z,775
2023-02-18T21:42:48.671Z,774
2023-02-18T21:44:32.363Z,776
2023-02-18T21:46:16.116Z,674
2023-02-18T21:47:59.789Z,718
2023-02-18T21:49:43.583Z,567
2023-02-18T21:51:27.171Z,562
2023-02-18T21:53:10.862Z,572
2023-02-18T21:54:54.647Z,557
2023-02-18T21:56:38.351Z,528
2023-02-18T21:58:21.985Z,541
2023-02-18T22:00:05.688Z,648
2023-02-18T22:01:49.384Z,668
2023-02-18T22:03:33.097Z,665
2023-02-18T22:05:16.821Z,776
2023-02-18T22:07:00.531Z,776
2023-02-18T22:08:44.251Z,775
2023-02-18T22:10:27.920Z,540
2023-02-18T22:12:11.725Z,776
2023-02-18T22:13:55.293Z,776
2023-02-18T22:15:38.985Z,776
2023-02-18T22:17:22.803Z,775
2023-02-18T22:19:06.383Z,776
2023-02-18T22:20:50.137Z,775
2023-02-18T22:22:33.883Z,776
2023-02-18T22:24:17.535Z,776
2023-02-18T22:26:01.187Z,776
2023-02-18T22:27:44.936Z,776
2023-02-18T22:29:28.589Z,775
2023-02-18T22:31:12.413Z,776
2023-02-18T22:32:55.982Z,777
2023-02-18T22:34:39.702Z,776
2023-02-18T22:36:23.409Z,775
2023-02-18T22:38:07.102Z,776
2023-02-18T22:39:50.879Z,776
2023-02-18T22:41:34.516Z,775
2023-02-18T22:43:18.240Z,775
2023-02-18T22:45:01.936Z,776
2023-02-18T22:46:45.628Z,774
2023-02-18T22:48:29.312Z,776
2023-02-18T22:50:13.015Z,776
2023-02-18T22:51:56.745Z,776
2023-02-18T22:53:40.436Z,776
2023-02-18T22:55:24.112Z,776
2023-02-18T22:57:07.828Z,776
2023-02-18T22:58:51.539Z,775
2023-02-18T23:00:35.379Z,84
2023-02-18T23:02:19.054Z,85
2023-02-18T23:04:02.664Z,83
2023-02-18T23:05:46.415Z,85
2023-02-18T23:07:30.089Z,84
2023-02-18T23:09:13.757Z,0
2023-02-18T23:10:57.481Z,0
2023-02-18T23:12:41.143Z,84
2023-02-18T23:14:24.904Z,0
2023-02-18T23:16:08.605Z,1
2023-02-18T23:17:52.240Z,0
2023-02-18T23:19:35.948Z,0
2023-02-18T23:21:19.643Z,0
2023-02-18T23:23:03.336Z,0
2023-02-18T23:24:47.095Z,0
2023-02-18T23:26:30.732Z,0
2023-02-18T23:28:14.455Z,0
2023-02-18T23:29:58.227Z,0
2023-02-18T23:31:41.838Z,0
2023-02-18T23:33:25.533Z,0
2023-02-18T23:35:09.263Z,0
2023-02-18T23:36:52.934Z,1
2023-02-18T23:38:36.650Z,0
2023-02-18T23:40:20.400Z,0
2023-02-18T23:42:04.100Z,0
2023-02-18T23:43:47.733Z,0
2023-02-18T23:45:31.436Z,0
2023-02-18T23:47:15.185Z,0
2023-02-18T23:48:58.873Z,0
2023-02-18T23:50:42.579Z,0
2023-02-18T23:52:26.256Z,0
2023-02-18T23:54:10.005Z,0
2023-02-18T23:55:53.696Z,0
2023-02-18T23:57:37.359Z,0
2023-02-18T23:59:21.052Z,0
